createdAt,value
2018-11-29T00:00:31.796Z,40.43
2018-11-29T00:03:00.435Z,40.23
2018-11-29T00:05:28.960Z,37.87
2018-11-29T00:07:57.478Z,36.17
2018-11-29T00:10:26.069Z,36.47
2018-11-29T00:12:54.615Z,44.63
2018-11-29T00:15:23.164Z,39.70
2018-11-29T00:17:51.814Z,35.80
2018-11-29T00:20:20.947Z,40.77
2018-11-29T00:22:50.506Z,43.63
2018-11-29T00:25:19.651Z,38.93
2018-11-29T00:27:48.618Z,39.10
2018-11-29T00:30:21.164Z,37.33
2018-11-29T00:32:50.544Z,43.70
2018-11-29T00:35:19.093Z,38.67
2018-11-29T00:37:47.699Z,39.37
2018-11-29T00:40:24.813Z,39.80
2018-11-29T00:42:53.488Z,35.97
2018-11-29T00:45:22.925Z,42.73
2018-11-29T00:47:51.762Z,40.27
2018-11-29T00:50:21.205Z,38.47
2018-11-29T00:52:50.502Z,37.77
2018-11-29T00:55:21.146Z,38.10
2018-11-29T00:57:49.858Z,42.63
2018-11-29T01:00:20.317Z,39.67
2018-11-29T01:02:49.034Z,41.80
2018-11-29T01:05:17.656Z,40.87
2018-11-29T01:07:46.212Z,35.80
2018-11-29T01:10:15.600Z,38.37
2018-11-29T01:12:44.599Z,38.83
2018-11-29T01:15:14.050Z,34.33
2018-11-29T01:17:42.745Z,41.00
2018-11-29T01:20:13.030Z,35.07
2018-11-29T01:22:41.569Z,39.10
2018-11-29T01:25:12.260Z,36.70
2018-11-29T01:27:41.280Z,37.17
2018-11-29T01:30:20.330Z,36.10
2018-11-29T01:32:49.048Z,37.27
2018-11-29T01:35:19.526Z,38.23
2018-11-29T01:37:48.366Z,37.53
2018-11-29T01:40:19.929Z,31.13
2018-11-29T01:42:51.696Z,35.90
2018-11-29T01:45:20.330Z,35.37
2018-11-29T01:47:48.940Z,38.90
2018-11-29T01:50:17.532Z,37.10
2018-11-29T01:52:46.062Z,38.47
2018-11-29T01:55:14.848Z,33.27
2018-11-29T01:57:43.362Z,33.77
2018-11-29T02:00:15.380Z,34.90
2018-11-29T02:02:46.407Z,36.53
2018-11-29T02:05:15.472Z,38.63
2018-11-29T02:07:44.752Z,36.13
2018-11-29T02:10:20.001Z,32.97
2018-11-29T02:12:49.191Z,31.17
2018-11-29T02:15:18.656Z,31.37
2018-11-29T02:17:47.800Z,31.87
2018-11-29T02:20:19.734Z,30.70
2018-11-29T02:22:51.255Z,32.17
2018-11-29T02:25:23.056Z,31.97
2018-11-29T02:27:53.347Z,30.33
2018-11-29T02:30:24.243Z,30.83
2018-11-29T02:32:56.103Z,35.67
2018-11-29T02:35:25.853Z,28.73
2018-11-29T02:37:56.687Z,30.27
2018-11-29T02:40:27.959Z,26.93
2018-11-29T02:42:56.962Z,27.60
2018-11-29T02:45:27.620Z,30.87
2018-11-29T02:47:59.919Z,33.27
2018-11-29T02:50:29.653Z,23.83
2018-11-29T02:52:59.887Z,26.43
2018-11-29T02:55:29.775Z,29.37
2018-11-29T02:57:59.515Z,28.53
2018-11-29T03:00:29.358Z,27.70
2018-11-29T03:02:59.055Z,26.60
2018-11-29T03:05:28.702Z,27.63
2018-11-29T03:07:59.439Z,24.87
2018-11-29T03:10:35.224Z,28.13
2018-11-29T03:13:04.367Z,28.17
2018-11-29T03:15:34.895Z,27.27
2018-11-29T03:18:04.455Z,27.00
2018-11-29T03:20:34.109Z,27.07
2018-11-29T03:23:03.857Z,26.60
2018-11-29T03:25:34.622Z,31.70
2018-11-29T03:28:06.281Z,25.97
2018-11-29T03:30:38.640Z,26.43
2018-11-29T03:33:12.238Z,24.80
2018-11-29T03:35:44.863Z,26.67
2018-11-29T03:38:20.750Z,27.33
2018-11-29T03:40:54.991Z,24.87
2018-11-29T03:43:31.854Z,28.40
2018-11-29T03:46:02.983Z,24.50
2018-11-29T03:48:34.385Z,24.83
2018-11-29T03:51:04.340Z,24.83
2018-11-29T03:53:41.483Z,28.43
2018-11-29T03:56:20.076Z,22.63
2018-11-29T03:58:50.695Z,23.17
2018-11-29T04:01:24.429Z,26.63
2018-11-29T04:03:56.127Z,26.17
2018-11-29T04:06:27.358Z,22.83
2018-11-29T04:08:59.417Z,23.47
2018-11-29T04:11:29.167Z,25.67
2018-11-29T04:13:59.670Z,24.57
2018-11-29T04:16:29.548Z,24.73
2018-11-29T04:19:01.306Z,27.67
2018-11-29T04:21:33.091Z,23.47
2018-11-29T04:24:09.510Z,26.43
2018-11-29T04:26:44.009Z,25.00
2018-11-29T04:29:20.601Z,21.67
2018-11-29T04:31:52.582Z,22.47
2018-11-29T04:34:28.284Z,24.43
2018-11-29T04:37:00.426Z,25.30
2018-11-29T04:39:29.888Z,25.47
2018-11-29T04:42:06.302Z,21.73
2018-11-29T04:44:39.718Z,21.77
2018-11-29T04:47:08.613Z,24.23
2018-11-29T04:49:37.129Z,22.33
2018-11-29T04:52:06.146Z,22.63
2018-11-29T04:54:34.637Z,24.40
2018-11-29T04:57:03.223Z,25.90
2018-11-29T04:59:31.782Z,21.50
2018-11-29T05:02:00.322Z,23.90
2018-11-29T05:04:28.832Z,23.50
2018-11-29T05:06:57.339Z,24.70
2018-11-29T05:09:25.837Z,23.33
2018-11-29T05:11:54.331Z,24.03
2018-11-29T05:14:22.841Z,25.30
2018-11-29T05:16:51.358Z,22.53
2018-11-29T05:19:19.904Z,25.37
2018-11-29T05:21:48.409Z,23.27
2018-11-29T05:24:16.886Z,23.60
2018-11-29T05:26:45.359Z,25.37
2018-11-29T05:29:13.858Z,22.57
2018-11-29T05:31:42.330Z,23.73
2018-11-29T05:34:10.861Z,23.30
2018-11-29T05:36:39.357Z,23.73
2018-11-29T05:39:08.033Z,22.57
2018-11-29T05:41:36.497Z,27.83
2018-11-29T05:44:05.248Z,25.03
2018-11-29T05:46:34.677Z,25.70
2018-11-29T05:49:03.396Z,26.87
2018-11-29T05:51:32.093Z,27.07
2018-11-29T05:54:00.635Z,25.50
2018-11-29T05:56:29.141Z,20.33
2018-11-29T05:58:57.791Z,26.00
2018-11-29T06:01:32.994Z,21.67
2018-11-29T06:04:01.562Z,23.30
2018-11-29T06:06:30.157Z,26.17
2018-11-29T06:08:58.679Z,27.87
2018-11-29T06:11:27.174Z,20.50
2018-11-29T06:13:55.674Z,21.40
2018-11-29T06:16:24.161Z,26.07
2018-11-29T06:18:52.985Z,21.77
2018-11-29T06:21:21.551Z,23.67
2018-11-29T06:23:50.095Z,21.67
2018-11-29T06:26:18.631Z,26.13
2018-11-29T06:28:47.181Z,24.37
2018-11-29T06:31:15.722Z,23.77
2018-11-29T06:33:44.342Z,23.43
2018-11-29T06:36:13.022Z,24.03
2018-11-29T06:38:41.557Z,19.17
2018-11-29T06:41:10.125Z,23.03
2018-11-29T06:43:38.639Z,22.80
2018-11-29T06:46:07.356Z,20.17
2018-11-29T06:48:35.890Z,17.23
2018-11-29T06:51:04.499Z,22.40
2018-11-29T06:53:38.414Z,20.37
2018-11-29T06:56:06.960Z,21.93
2018-11-29T06:58:35.468Z,20.57
2018-11-29T07:01:03.973Z,20.73
2018-11-29T07:03:32.515Z,22.17
2018-11-29T07:06:01.062Z,26.57
2018-11-29T07:08:29.593Z,27.73
2018-11-29T07:10:58.113Z,20.27
2018-11-29T07:13:26.623Z,20.57
2018-11-29T07:15:55.165Z,22.73
2018-11-29T07:18:23.702Z,25.30
2018-11-29T07:21:03.381Z,18.90
2018-11-29T07:23:31.910Z,24.63
2018-11-29T07:26:00.470Z,18.63
2018-11-29T07:28:29.024Z,21.03
2018-11-29T07:30:57.546Z,23.57
2018-11-29T07:33:27.078Z,23.27
2018-11-29T07:35:55.598Z,21.90
2018-11-29T07:38:24.114Z,19.67
2018-11-29T07:40:52.724Z,20.43
2018-11-29T07:43:21.280Z,22.17
2018-11-29T07:45:49.792Z,22.43
2018-11-29T07:48:18.342Z,22.57
2018-11-29T07:50:46.901Z,21.37
2018-11-29T07:53:16.309Z,19.03
2018-11-29T07:55:43.968Z,24.97
2018-11-29T07:58:12.480Z,24.43
2018-11-29T08:00:41.010Z,30.43
2018-11-29T08:03:09.505Z,18.20
2018-11-29T08:05:38.105Z,18.50
2018-11-29T08:08:06.640Z,20.27
2018-11-29T08:10:35.145Z,21.40
2018-11-29T08:13:03.799Z,22.57
2018-11-29T08:15:33.153Z,22.47
2018-11-29T08:18:01.644Z,26.23
2018-11-29T08:20:30.215Z,23.83
2018-11-29T08:22:58.724Z,22.73
2018-11-29T08:25:27.214Z,20.23
2018-11-29T08:27:55.789Z,22.63
2018-11-29T08:30:24.333Z,27.93
2018-11-29T08:32:53.582Z,24.70
2018-11-29T08:35:22.125Z,21.50
2018-11-29T08:37:50.647Z,17.30
2018-11-29T08:40:20.819Z,24.03
2018-11-29T08:42:49.446Z,23.73
2018-11-29T08:45:18.000Z,18.20
2018-11-29T08:47:46.646Z,16.93
2018-11-29T08:50:15.918Z,21.77
2018-11-29T08:52:45.438Z,17.87
2018-11-29T08:55:16.143Z,27.67
2018-11-29T08:57:45.081Z,23.20
2018-11-29T09:00:16.437Z,18.63
2018-11-29T09:02:45.115Z,23.73
2018-11-29T09:05:14.374Z,25.97
2018-11-29T09:07:43.850Z,18.37
2018-11-29T09:10:16.613Z,19.60
2018-11-29T09:12:45.096Z,20.83
2018-11-29T09:15:14.517Z,23.10
2018-11-29T09:17:43.241Z,22.43
2018-11-29T09:20:13.003Z,23.07
2018-11-29T09:22:41.708Z,22.50
2018-11-29T09:25:13.489Z,19.60
2018-11-29T09:27:42.022Z,21.33
2018-11-29T09:30:16.998Z,19.50
2018-11-29T09:32:46.947Z,20.37
2018-11-29T09:35:15.597Z,22.37
2018-11-29T09:37:44.130Z,19.03
2018-11-29T09:40:14.813Z,17.87
2018-11-29T09:42:43.494Z,16.33
2018-11-29T09:45:15.089Z,17.67
2018-11-29T09:47:44.445Z,17.00
2018-11-29T09:50:13.953Z,22.70
2018-11-29T09:52:42.558Z,20.30
2018-11-29T09:55:12.200Z,15.00
2018-11-29T09:57:40.934Z,23.50
2018-11-29T10:00:27.167Z,20.10
2018-11-29T10:02:53.431Z,18.33
2018-11-29T10:05:21.973Z,18.57
2018-11-29T10:07:50.505Z,20.97
2018-11-29T10:10:19.055Z,24.67
2018-11-29T10:12:47.601Z,21.37
2018-11-29T10:15:16.156Z,23.03
2018-11-29T10:17:44.698Z,16.17
2018-11-29T10:20:13.577Z,14.57
2018-11-29T10:22:42.854Z,18.57
2018-11-29T10:25:12.988Z,19.23
2018-11-29T10:27:43.396Z,25.93
2018-11-29T10:30:18.605Z,16.60
2018-11-29T10:32:47.155Z,24.50
2018-11-29T10:35:15.708Z,18.30
2018-11-29T10:37:44.461Z,14.60
2018-11-29T10:40:13.090Z,18.73
2018-11-29T10:42:41.626Z,24.20
2018-11-29T10:45:15.323Z,17.33
2018-11-29T10:47:49.344Z,19.17
2018-11-29T10:50:14.436Z,18.57
2018-11-29T10:52:43.105Z,17.13
2018-11-29T10:55:19.293Z,18.23
2018-11-29T10:57:47.967Z,21.13
2018-11-29T11:00:25.923Z,19.50
2018-11-29T11:03:01.223Z,18.87
2018-11-29T11:05:29.740Z,23.93
2018-11-29T11:07:58.279Z,19.23
2018-11-29T11:10:26.781Z,17.67
2018-11-29T11:12:55.310Z,16.10
2018-11-29T11:15:23.853Z,22.57
2018-11-29T11:17:52.441Z,18.70
2018-11-29T11:20:21.024Z,17.13
2018-11-29T11:22:50.148Z,17.63
2018-11-29T11:25:18.666Z,20.80
2018-11-29T11:27:47.262Z,18.53
2018-11-29T11:30:20.625Z,19.03
2018-11-29T11:32:51.933Z,19.70
2018-11-29T11:35:20.549Z,17.97
2018-11-29T11:37:49.105Z,24.70
2018-11-29T11:40:17.983Z,15.60
2018-11-29T11:42:47.139Z,23.83
2018-11-29T11:45:17.861Z,23.97
2018-11-29T11:47:46.555Z,19.23
2018-11-29T11:50:18.150Z,21.03
2018-11-29T11:52:46.864Z,20.77
2018-11-29T11:55:19.021Z,15.53
2018-11-29T11:57:44.639Z,16.37
2018-11-29T12:00:18.428Z,17.27
2018-11-29T12:02:47.709Z,22.50
2018-11-29T12:05:16.214Z,19.97
2018-11-29T12:07:44.801Z,21.47
2018-11-29T12:10:15.390Z,21.87
2018-11-29T12:12:43.881Z,17.90
2018-11-29T12:15:14.444Z,24.40
2018-11-29T12:17:44.074Z,15.53
2018-11-29T12:20:13.872Z,25.83
2018-11-29T12:22:42.376Z,19.40
2018-11-29T12:25:12.331Z,21.83
2018-11-29T12:27:40.836Z,21.73
2018-11-29T12:30:15.043Z,25.37
2018-11-29T12:32:43.609Z,15.93
2018-11-29T12:35:12.104Z,19.57
2018-11-29T12:37:40.673Z,15.80
2018-11-29T12:40:10.758Z,19.50
2018-11-29T12:42:39.366Z,20.17
2018-11-29T12:45:10.346Z,16.67
2018-11-29T12:47:40.195Z,22.30
2018-11-29T12:50:13.280Z,19.87
2018-11-29T12:52:41.884Z,17.60
2018-11-29T12:55:11.005Z,18.33
2018-11-29T12:57:39.560Z,22.83
2018-11-29T13:00:11.776Z,19.67
2018-11-29T13:02:43.857Z,21.90
2018-11-29T13:05:12.407Z,16.17
2018-11-29T13:07:43.345Z,24.87
2018-11-29T13:10:09.828Z,20.80
2018-11-29T13:12:38.337Z,15.37
2018-11-29T13:15:10.823Z,17.90
2018-11-29T13:17:39.293Z,18.57
2018-11-29T13:20:11.274Z,18.30
2018-11-29T13:22:39.862Z,16.27
2018-11-29T13:25:12.135Z,24.67
2018-11-29T13:27:41.247Z,14.90
2018-11-29T13:30:11.663Z,17.10
2018-11-29T13:32:40.861Z,20.80
2018-11-29T13:35:16.045Z,18.53
2018-11-29T13:37:53.014Z,16.10
2018-11-29T13:40:22.595Z,20.90
2018-11-29T13:42:51.445Z,21.03
2018-11-29T13:45:20.828Z,20.03
2018-11-29T13:47:49.696Z,19.60
2018-11-29T13:50:18.663Z,24.97
2018-11-29T13:52:48.937Z,18.70
2018-11-29T13:55:18.250Z,21.57
2018-11-29T13:57:54.020Z,21.20
2018-11-29T14:00:23.674Z,19.57
2018-11-29T14:02:53.626Z,19.60
2018-11-29T14:05:22.216Z,15.97
2018-11-29T14:07:50.761Z,19.10
2018-11-29T14:10:21.492Z,16.33
2018-11-29T14:12:52.010Z,22.93
2018-11-29T14:15:22.056Z,21.67
2018-11-29T14:17:51.759Z,19.90
2018-11-29T14:20:20.455Z,15.63
2018-11-29T14:22:55.627Z,17.43
2018-11-29T14:25:24.162Z,19.60
2018-11-29T14:27:54.390Z,17.43
2018-11-29T14:30:27.037Z,24.20
2018-11-29T14:32:56.763Z,21.63
2018-11-29T14:35:25.344Z,19.10
2018-11-29T14:37:53.864Z,27.67
2018-11-29T14:40:23.294Z,18.60
2018-11-29T14:42:52.144Z,21.10
2018-11-29T14:45:23.188Z,31.50
2018-11-29T14:47:51.829Z,16.47
2018-11-29T14:50:26.696Z,25.40
2018-11-29T14:52:58.319Z,17.50
2018-11-29T14:55:28.018Z,15.83
2018-11-29T14:57:56.687Z,16.87
2018-11-29T15:00:25.250Z,21.57
2018-11-29T15:02:54.254Z,23.63
2018-11-29T15:05:24.403Z,20.77
2018-11-29T15:07:52.906Z,22.30
2018-11-29T15:10:21.462Z,15.57
2018-11-29T15:12:49.930Z,21.93
2018-11-29T15:15:18.466Z,21.63
2018-11-29T15:17:47.813Z,19.03
2018-11-29T15:20:19.585Z,21.00
2018-11-29T15:22:48.294Z,18.23
2018-11-29T15:25:16.773Z,23.07
2018-11-29T15:27:45.285Z,18.30
2018-11-29T15:30:21.639Z,18.70
2018-11-29T15:32:50.245Z,27.70
2018-11-29T15:35:19.001Z,20.70
2018-11-29T15:37:47.555Z,15.33
2018-11-29T15:40:16.893Z,20.10
2018-11-29T15:42:45.613Z,22.87
2018-11-29T15:45:19.463Z,17.73
2018-11-29T15:47:48.066Z,22.27
2018-11-29T15:50:17.106Z,19.27
2018-11-29T15:52:45.781Z,19.60
2018-11-29T15:55:18.177Z,22.73
2018-11-29T15:57:47.697Z,19.00
2018-11-29T16:00:27.180Z,17.03
2018-11-29T16:02:57.041Z,17.23
2018-11-29T16:05:25.689Z,21.97
2018-11-29T16:07:54.289Z,19.13
2018-11-29T16:10:23.886Z,20.90
2018-11-29T16:12:52.375Z,21.20
2018-11-29T16:15:21.261Z,18.30
2018-11-29T16:17:50.758Z,21.67
2018-11-29T16:20:24.494Z,22.83
2018-11-29T16:22:53.717Z,20.57
2018-11-29T16:25:22.258Z,19.50
2018-11-29T16:27:51.775Z,22.77
2018-11-29T16:30:37.140Z,23.77
2018-11-29T16:33:08.917Z,26.13
2018-11-29T16:35:37.547Z,26.20
2018-11-29T16:38:06.997Z,24.80
2018-11-29T16:40:36.189Z,22.57
2018-11-29T16:43:04.807Z,20.40
2018-11-29T16:45:33.391Z,22.80
2018-11-29T16:48:01.885Z,27.10
2018-11-29T16:50:30.486Z,24.57
2018-11-29T16:52:59.191Z,24.40
2018-11-29T16:55:27.705Z,22.17
2018-11-29T16:57:59.590Z,23.63
2018-11-29T17:00:28.132Z,23.03
2018-11-29T17:02:56.685Z,21.57
2018-11-29T17:05:31.937Z,21.10
2018-11-29T17:10:53.444Z,27.77
2018-11-29T17:13:22.660Z,25.20
2018-11-29T17:15:51.239Z,26.50
2018-11-29T17:18:19.772Z,34.63
2018-11-29T17:20:48.583Z,23.13
2018-11-29T17:23:17.190Z,25.90
2018-11-29T17:25:46.065Z,26.50
2018-11-29T17:28:14.672Z,24.20
2018-11-29T17:30:43.501Z,27.77
2018-11-29T17:33:12.176Z,27.50
2018-11-29T17:35:40.838Z,31.20
2018-11-29T17:38:09.486Z,28.50
2018-11-29T17:40:38.911Z,23.83
2018-11-29T17:43:08.413Z,26.90
2018-11-29T17:48:19.022Z,26.97
2018-11-29T17:50:47.512Z,24.83
2018-11-29T17:53:16.024Z,30.60
2018-11-29T17:55:44.785Z,33.87
2018-11-29T17:58:15.571Z,28.70
2018-11-29T18:00:45.810Z,25.97
2018-11-29T18:03:16.764Z,32.40
2018-11-29T18:05:45.310Z,30.27
2018-11-29T18:08:13.948Z,29.17
2018-11-29T18:10:43.034Z,29.50
2018-11-29T18:13:16.000Z,36.40
2018-11-29T18:15:44.720Z,29.37
2018-11-29T18:18:13.336Z,30.93
2018-11-29T18:20:41.907Z,32.30
2018-11-29T18:23:11.122Z,33.10
2018-11-29T18:25:39.984Z,28.37
2018-11-29T18:28:09.141Z,30.63
2018-11-29T18:30:37.861Z,36.67
2018-11-29T18:33:07.149Z,32.47
2018-11-29T18:35:36.696Z,33.33
2018-11-29T18:38:06.580Z,31.87
2018-11-29T18:40:35.992Z,34.23
2018-11-29T18:43:05.284Z,33.00
2018-11-29T18:45:33.934Z,30.90
2018-11-29T18:48:02.557Z,40.33
2018-11-29T18:50:31.818Z,36.07
2018-11-29T18:53:00.491Z,34.13
2018-11-29T18:55:29.152Z,31.97
2018-11-29T18:58:01.013Z,35.67
2018-11-29T19:00:32.022Z,30.50
2018-11-29T19:03:00.642Z,36.57
2018-11-29T19:05:29.320Z,35.27
2018-11-29T19:07:58.126Z,35.20
2018-11-29T19:10:26.893Z,34.03
2018-11-29T19:12:58.925Z,33.00
2018-11-29T19:15:27.749Z,34.63
2018-11-29T19:17:56.503Z,34.70
2018-11-29T19:20:32.943Z,41.17
2018-11-29T19:23:02.144Z,40.67
2018-11-29T19:25:30.805Z,32.53
2018-11-29T19:27:59.528Z,32.50
2018-11-29T19:30:29.337Z,36.20
2018-11-29T19:33:04.051Z,37.37
2018-11-29T19:35:32.810Z,51.73
2018-11-29T19:38:01.430Z,35.87
2018-11-29T19:40:30.096Z,33.53
2018-11-29T19:42:59.470Z,34.67
2018-11-29T19:45:28.310Z,43.03
2018-11-29T19:47:57.123Z,41.93
2018-11-29T19:50:26.239Z,33.13
2018-11-29T19:52:56.777Z,37.87
2018-11-29T19:55:26.981Z,34.07
2018-11-29T19:57:56.742Z,34.80
2018-11-29T20:00:25.631Z,34.70
2018-11-29T20:02:55.744Z,36.83
2018-11-29T20:05:24.394Z,35.53
2018-11-29T20:07:53.074Z,34.23
2018-11-29T20:10:21.895Z,32.60
2018-11-29T20:13:00.924Z,34.77
2018-11-29T20:15:29.688Z,38.60
2018-11-29T20:17:58.408Z,38.87
2018-11-29T20:20:26.999Z,34.87
2018-11-29T20:22:56.337Z,35.93
2018-11-29T20:25:26.021Z,37.63
2018-11-29T20:28:00.922Z,39.70
2018-11-29T20:30:29.602Z,37.70
2018-11-29T20:32:58.186Z,37.67
2018-11-29T20:35:26.784Z,39.07
2018-11-29T20:37:55.467Z,39.37
2018-11-29T20:40:25.425Z,34.50
2018-11-29T20:42:56.235Z,38.33
2018-11-29T20:45:43.897Z,38.27
2018-11-29T20:48:18.819Z,37.33
2018-11-29T20:50:48.213Z,38.07
2018-11-29T20:53:20.930Z,38.93
2018-11-29T20:55:50.178Z,43.77
2018-11-29T20:58:18.783Z,42.93
2018-11-29T21:00:47.386Z,39.67
2018-11-29T21:03:16.056Z,36.37
2018-11-29T21:05:45.437Z,38.33
2018-11-29T21:08:14.419Z,41.73
2018-11-29T21:10:43.036Z,35.80
2018-11-29T21:13:11.682Z,36.83
2018-11-29T21:15:41.695Z,36.80
2018-11-29T21:18:11.859Z,35.87
2018-11-29T21:20:41.313Z,40.27
2018-11-29T21:23:13.998Z,35.70
2018-11-29T21:25:43.878Z,36.30
2018-11-29T21:28:12.462Z,31.57
2018-11-29T21:30:41.142Z,38.07
2018-11-29T21:33:10.159Z,38.60
2018-11-29T21:35:38.808Z,35.20
2018-11-29T21:38:15.014Z,36.77
2018-11-29T21:40:45.703Z,39.37
2018-11-29T21:43:14.266Z,35.60
2018-11-29T21:45:42.915Z,39.70
2018-11-29T21:48:12.262Z,32.40
2018-11-29T21:50:40.901Z,34.23
2018-11-29T21:53:09.442Z,36.30
2018-11-29T21:58:12.887Z,36.50
2018-11-29T22:00:41.490Z,35.03
2018-11-29T22:03:10.050Z,33.60
2018-11-29T22:05:38.598Z,36.73
2018-11-29T22:08:07.170Z,36.17
2018-11-29T22:10:35.690Z,30.70
2018-11-29T22:13:04.214Z,33.50
2018-11-29T22:15:32.790Z,39.03
2018-11-29T22:18:20.413Z,30.03
2018-11-29T22:20:52.116Z,33.33
2018-11-29T22:23:20.722Z,35.70
2018-11-29T22:25:49.314Z,33.97
2018-11-29T22:28:17.799Z,33.87
2018-11-29T22:30:46.302Z,34.40
2018-11-29T22:33:14.858Z,29.47
2018-11-29T22:35:43.362Z,35.40
2018-11-29T22:38:11.866Z,33.27
2018-11-29T22:40:40.569Z,33.23
2018-11-29T22:43:09.116Z,34.50
2018-11-29T22:45:37.752Z,32.23
2018-11-29T22:48:06.366Z,32.07
2018-11-29T22:50:34.875Z,33.37
2018-11-29T22:53:04.019Z,30.93
2018-11-29T22:55:32.628Z,35.30
2018-11-29T22:58:01.111Z,32.07
2018-11-29T23:00:34.858Z,42.00
2018-11-29T23:03:03.446Z,35.60
2018-11-29T23:05:31.940Z,38.13
2018-11-29T23:08:00.494Z,34.40
2018-11-29T23:10:29.026Z,34.83
2018-11-29T23:12:57.546Z,36.57
2018-11-29T23:15:26.119Z,31.33
2018-11-29T23:17:54.630Z,36.57
2018-11-29T23:20:23.165Z,35.13
2018-11-29T23:22:51.709Z,34.07
2018-11-29T23:25:20.215Z,30.40
2018-11-29T23:27:48.710Z,36.50
2018-11-29T23:30:17.769Z,30.87
2018-11-29T23:32:46.279Z,35.07
2018-11-29T23:35:15.433Z,31.87
2018-11-29T23:37:44.031Z,33.20
2018-11-29T23:40:16.882Z,35.77
2018-11-29T23:42:45.918Z,33.33
2018-11-29T23:45:14.656Z,32.53
2018-11-29T23:47:43.297Z,36.63
2018-11-29T23:50:15.339Z,31.13
2018-11-29T23:52:43.883Z,33.87
2018-11-29T23:55:14.828Z,30.57
2018-11-29T23:57:43.353Z,33.40
